sensor_id;sensor_type;location;lat;lon;timestamp;temperature;humidity
75824;DHT22;64457;51.976;9.834;2023-05-23T00:01:24;18.90;99.90
75824;DHT22;64457;51.976;9.834;2023-05-23T00:03:56;19.20;99.90
75824;DHT22;64457;51.976;9.834;2023-05-23T00:06:28;19.40;99.90
75824;DHT22;64457;51.976;9.834;2023-05-23T00:08:56;19.70;99.90
75824;DHT22;64457;51.976;9.834;2023-05-23T00:11:24;19.90;99.90
75824;DHT22;64457;51.976;9.834;2023-05-23T00:13:54;20.10;99.90
75824;DHT22;64457;51.976;9.834;2023-05-23T00:16:29;20.20;99.90
75824;DHT22;64457;51.976;9.834;2023-05-23T00:19:06;20.00;99.90
75824;DHT22;64457;51.976;9.834;2023-05-23T00:21:35;19.60;99.90
75824;DHT22;64457;51.976;9.834;2023-05-23T00:24:03;19.30;99.90
75824;DHT22;64457;51.976;9.834;2023-05-23T00:26:32;19.30;99.90
75824;DHT22;64457;51.976;9.834;2023-05-23T00:29:00;19.50;99.90
75824;DHT22;64457;51.976;9.834;2023-05-23T00:31:30;19.90;99.90
75824;DHT22;64457;51.976;9.834;2023-05-23T00:33:59;20.20;99.90
75824;DHT22;64457;51.976;9.834;2023-05-23T00:36:26;20.30;99.90
75824;DHT22;64457;51.976;9.834;2023-05-23T00:38:54;20.50;99.90
75824;DHT22;64457;51.976;9.834;2023-05-23T00:41:27;20.60;99.90
75824;DHT22;64457;51.976;9.834;2023-05-23T00:44:11;20.70;99.90
75824;DHT22;64457;51.976;9.834;2023-05-23T00:46:42;20.80;99.90
75824;DHT22;64457;51.976;9.834;2023-05-23T00:49:12;20.80;99.90
75824;DHT22;64457;51.976;9.834;2023-05-23T00:51:40;20.80;99.90
75824;DHT22;64457;51.976;9.834;2023-05-23T00:54:09;20.70;99.90
75824;DHT22;64457;51.976;9.834;2023-05-23T00:56:37;20.70;99.90
75824;DHT22;64457;51.976;9.834;2023-05-23T00:59:06;20.40;99.90
75824;DHT22;64457;51.976;9.834;2023-05-23T01:01:36;19.90;99.90
75824;DHT22;64457;51.976;9.834;2023-05-23T01:04:06;19.80;99.90
75824;DHT22;64457;51.976;9.834;2023-05-23T01:06:33;20.00;99.90
75824;DHT22;64457;51.976;9.834;2023-05-23T01:09:02;20.30;99.90
75824;DHT22;64457;51.976;9.834;2023-05-23T01:11:35;20.40;99.90
75824;DHT22;64457;51.976;9.834;2023-05-23T01:14:11;20.50;99.90
75824;DHT22;64457;51.976;9.834;2023-05-23T01:16:46;20.60;99.90
75824;DHT22;64457;51.976;9.834;2023-05-23T01:22:35;20.30;99.90
75824;DHT22;64457;51.976;9.834;2023-05-23T01:25:22;20.10;99.90
75824;DHT22;64457;51.976;9.834;2023-05-23T01:28:05;20.20;99.90
75824;DHT22;64457;51.976;9.834;2023-05-23T01:30:37;20.50;99.90
75824;DHT22;64457;51.976;9.834;2023-05-23T01:33:07;20.40;99.90
75824;DHT22;64457;51.976;9.834;2023-05-23T01:35:36;20.50;99.90
75824;DHT22;64457;51.976;9.834;2023-05-23T01:38:04;20.20;99.90
75824;DHT22;64457;51.976;9.834;2023-05-23T01:40:32;19.80;99.90
75824;DHT22;64457;51.976;9.834;2023-05-23T01:43:00;19.00;99.90
75824;DHT22;64457;51.976;9.834;2023-05-23T01:45:31;18.60;99.90
75824;DHT22;64457;51.976;9.834;2023-05-23T01:48:02;18.20;99.90
75824;DHT22;64457;51.976;9.834;2023-05-23T01:50:31;18.40;99.90
75824;DHT22;64457;51.976;9.834;2023-05-23T01:52:59;18.80;99.90
75824;DHT22;64457;51.976;9.834;2023-05-23T01:55:28;19.10;99.90
75824;DHT22;64457;51.976;9.834;2023-05-23T01:57:57;19.20;99.90
75824;DHT22;64457;51.976;9.834;2023-05-23T02:00:25;19.10;99.90
75824;DHT22;64457;51.976;9.834;2023-05-23T02:02:55;19.00;99.90
75824;DHT22;64457;51.976;9.834;2023-05-23T02:05:27;19.00;99.90
75824;DHT22;64457;51.976;9.834;2023-05-23T02:07:55;18.80;99.90
75824;DHT22;64457;51.976;9.834;2023-05-23T02:10:23;18.90;99.90
75824;DHT22;64457;51.976;9.834;2023-05-23T02:12:51;18.70;99.90
75824;DHT22;64457;51.976;9.834;2023-05-23T02:15:19;18.60;99.90
75824;DHT22;64457;51.976;9.834;2023-05-23T02:17:47;18.80;99.90
75824;DHT22;64457;51.976;9.834;2023-05-23T02:20:17;18.80;99.90
75824;DHT22;64457;51.976;9.834;2023-05-23T02:22:46;18.50;99.90
75824;DHT22;64457;51.976;9.834;2023-05-23T02:25:14;18.40;99.90
75824;DHT22;64457;51.976;9.834;2023-05-23T02:27:45;18.50;99.90
75824;DHT22;64457;51.976;9.834;2023-05-23T02:30:13;18.40;99.90
75824;DHT22;64457;51.976;9.834;2023-05-23T02:32:43;18.50;99.90
75824;DHT22;64457;51.976;9.834;2023-05-23T02:35:11;18.40;99.90
75824;DHT22;64457;51.976;9.834;2023-05-23T02:37:45;18.50;99.70
75824;DHT22;64457;51.976;9.834;2023-05-23T02:40:14;18.60;99.70
75824;DHT22;64457;51.976;9.834;2023-05-23T02:42:43;18.70;99.40
75824;DHT22;64457;51.976;9.834;2023-05-23T02:45:11;18.80;99.10
75824;DHT22;64457;51.976;9.834;2023-05-23T02:47:39;18.60;98.80
75824;DHT22;64457;51.976;9.834;2023-05-23T02:50:07;18.60;98.80
75824;DHT22;64457;51.976;9.834;2023-05-23T02:52:36;18.50;99.30
75824;DHT22;64457;51.976;9.834;2023-05-23T02:55:07;18.50;99.20
75824;DHT22;64457;51.976;9.834;2023-05-23T02:57:35;18.70;99.20
75824;DHT22;64457;51.976;9.834;2023-05-23T03:00:05;18.80;98.90
75824;DHT22;64457;51.976;9.834;2023-05-23T03:02:43;18.80;98.90
75824;DHT22;64457;51.976;9.834;2023-05-23T03:05:11;18.90;98.90
75824;DHT22;64457;51.976;9.834;2023-05-23T03:07:39;19.10;98.20
75824;DHT22;64457;51.976;9.834;2023-05-23T03:10:11;19.10;97.60
75824;DHT22;64457;51.976;9.834;2023-05-23T03:12:38;19.00;97.80
75824;DHT22;64457;51.976;9.834;2023-05-23T03:15:07;19.00;97.90
75824;DHT22;64457;51.976;9.834;2023-05-23T03:17:36;18.90;98.00
75824;DHT22;64457;51.976;9.834;2023-05-23T03:20:05;18.90;98.20
75824;DHT22;64457;51.976;9.834;2023-05-23T03:22:34;19.00;98.10
75824;DHT22;64457;51.976;9.834;2023-05-23T03:25:03;19.20;98.00
75824;DHT22;64457;51.976;9.834;2023-05-23T03:27:32;19.30;98.20
75824;DHT22;64457;51.976;9.834;2023-05-23T03:30:00;19.20;97.90
75824;DHT22;64457;51.976;9.834;2023-05-23T03:32:28;19.20;97.90
75824;DHT22;64457;51.976;9.834;2023-05-23T03:34:56;19.10;97.80
75824;DHT22;64457;51.976;9.834;2023-05-23T03:37:24;19.10;97.90
75824;DHT22;64457;51.976;9.834;2023-05-23T03:39:52;19.10;98.30
75824;DHT22;64457;51.976;9.834;2023-05-23T03:42:20;19.20;98.00
75824;DHT22;64457;51.976;9.834;2023-05-23T03:44:50;19.30;97.60
75824;DHT22;64457;51.976;9.834;2023-05-23T03:47:18;19.30;97.60
75824;DHT22;64457;51.976;9.834;2023-05-23T03:49:45;19.40;97.60
75824;DHT22;64457;51.976;9.834;2023-05-23T03:52:14;19.30;97.60
75824;DHT22;64457;51.976;9.834;2023-05-23T03:54:41;19.20;97.50
75824;DHT22;64457;51.976;9.834;2023-05-23T03:57:09;19.20;97.70
75824;DHT22;64457;51.976;9.834;2023-05-23T03:59:37;19.30;97.80
75824;DHT22;64457;51.976;9.834;2023-05-23T04:02:06;19.40;97.70
75824;DHT22;64457;51.976;9.834;2023-05-23T04:04:37;19.50;97.50
75824;DHT22;64457;51.976;9.834;2023-05-23T04:07:05;19.60;97.60
75824;DHT22;64457;51.976;9.834;2023-05-23T04:09:34;19.50;97.20
75824;DHT22;64457;51.976;9.834;2023-05-23T04:12:04;19.60;97.40
75824;DHT22;64457;51.976;9.834;2023-05-23T04:14:33;19.80;97.30
75824;DHT22;64457;51.976;9.834;2023-05-23T04:17:02;19.70;97.20
75824;DHT22;64457;51.976;9.834;2023-05-23T04:19:31;19.70;97.20
75824;DHT22;64457;51.976;9.834;2023-05-23T04:21:59;19.60;97.00
75824;DHT22;64457;51.976;9.834;2023-05-23T04:24:26;19.70;97.10
75824;DHT22;64457;51.976;9.834;2023-05-23T04:26:54;19.60;97.40
75824;DHT22;64457;51.976;9.834;2023-05-23T04:29:23;19.60;97.60
75824;DHT22;64457;51.976;9.834;2023-05-23T04:31:51;19.50;97.70
75824;DHT22;64457;51.976;9.834;2023-05-23T04:34:19;19.50;97.60
75824;DHT22;64457;51.976;9.834;2023-05-23T04:36:50;19.50;97.60
75824;DHT22;64457;51.976;9.834;2023-05-23T04:39:18;19.50;98.10
75824;DHT22;64457;51.976;9.834;2023-05-23T04:41:47;19.50;97.40
75824;DHT22;64457;51.976;9.834;2023-05-23T04:44:15;19.30;98.00
75824;DHT22;64457;51.976;9.834;2023-05-23T04:46:43;19.30;98.00
75824;DHT22;64457;51.976;9.834;2023-05-23T04:49:17;19.10;98.00
75824;DHT22;64457;51.976;9.834;2023-05-23T04:51:46;18.80;98.10
75824;DHT22;64457;51.976;9.834;2023-05-23T04:54:15;18.70;98.40
75824;DHT22;64457;51.976;9.834;2023-05-23T04:56:43;18.60;98.40
75824;DHT22;64457;51.976;9.834;2023-05-23T04:59:11;18.40;98.90
75824;DHT22;64457;51.976;9.834;2023-05-23T05:01:38;18.50;98.90
75824;DHT22;64457;51.976;9.834;2023-05-23T05:04:09;18.80;98.40
75824;DHT22;64457;51.976;9.834;2023-05-23T05:06:36;18.80;98.00
75824;DHT22;64457;51.976;9.834;2023-05-23T05:09:04;19.00;98.20
75824;DHT22;64457;51.976;9.834;2023-05-23T05:11:33;18.80;97.70
75824;DHT22;64457;51.976;9.834;2023-05-23T05:14:01;18.80;98.30
75824;DHT22;64457;51.976;9.834;2023-05-23T05:16:29;18.80;98.20
75824;DHT22;64457;51.976;9.834;2023-05-23T05:19:00;18.50;98.30
75824;DHT22;64457;51.976;9.834;2023-05-23T05:21:28;18.30;98.40
75824;DHT22;64457;51.976;9.834;2023-05-23T05:23:56;18.00;98.90
75824;DHT22;64457;51.976;9.834;2023-05-23T05:26:25;17.70;99.80
75824;DHT22;64457;51.976;9.834;2023-05-23T05:28:54;18.00;99.40
75824;DHT22;64457;51.976;9.834;2023-05-23T05:31:23;18.30;98.70
75824;DHT22;64457;51.976;9.834;2023-05-23T05:33:51;18.40;98.30
75824;DHT22;64457;51.976;9.834;2023-05-23T05:36:19;18.50;98.10
75824;DHT22;64457;51.976;9.834;2023-05-23T05:38:47;18.20;98.60
75824;DHT22;64457;51.976;9.834;2023-05-23T05:41:16;18.20;98.60
75824;DHT22;64457;51.976;9.834;2023-05-23T05:43:44;17.80;99.20
75824;DHT22;64457;51.976;9.834;2023-05-23T05:46:14;17.90;99.40
75824;DHT22;64457;51.976;9.834;2023-05-23T05:48:42;17.90;99.50
75824;DHT22;64457;51.976;9.834;2023-05-23T05:51:10;18.00;99.40
75824;DHT22;64457;51.976;9.834;2023-05-23T05:53:38;17.80;99.90
75824;DHT22;64457;51.976;9.834;2023-05-23T05:56:06;18.10;99.50
75824;DHT22;64457;51.976;9.834;2023-05-23T05:58:34;18.00;99.10
75824;DHT22;64457;51.976;9.834;2023-05-23T06:01:01;18.00;99.50
75824;DHT22;64457;51.976;9.834;2023-05-23T06:03:32;18.10;99.40
75824;DHT22;64457;51.976;9.834;2023-05-23T06:05:59;18.30;99.20
75824;DHT22;64457;51.976;9.834;2023-05-23T06:08:27;18.10;99.20
75824;DHT22;64457;51.976;9.834;2023-05-23T06:10:54;18.20;99.20
75824;DHT22;64457;51.976;9.834;2023-05-23T06:13:22;18.40;99.00
75824;DHT22;64457;51.976;9.834;2023-05-23T06:15:50;18.40;98.90
75824;DHT22;64457;51.976;9.834;2023-05-23T06:18:18;18.40;99.00
75824;DHT22;64457;51.976;9.834;2023-05-23T06:20:48;18.30;99.00
75824;DHT22;64457;51.976;9.834;2023-05-23T06:23:15;18.20;99.20
75824;DHT22;64457;51.976;9.834;2023-05-23T06:25:43;18.10;99.60
75824;DHT22;64457;51.976;9.834;2023-05-23T06:28:11;18.00;99.90
75824;DHT22;64457;51.976;9.834;2023-05-23T06:30:39;18.00;99.80
75824;DHT22;64457;51.976;9.834;2023-05-23T06:33:07;18.00;99.90
75824;DHT22;64457;51.976;9.834;2023-05-23T06:35:36;17.80;99.90
75824;DHT22;64457;51.976;9.834;2023-05-23T06:38:05;18.10;99.80
75824;DHT22;64457;51.976;9.834;2023-05-23T06:40:34;18.10;99.90
75824;DHT22;64457;51.976;9.834;2023-05-23T06:43:02;18.20;99.80
75824;DHT22;64457;51.976;9.834;2023-05-23T06:45:29;18.20;99.90
75824;DHT22;64457;51.976;9.834;2023-05-23T06:47:59;18.00;99.90
75824;DHT22;64457;51.976;9.834;2023-05-23T06:50:27;17.70;99.90
75824;DHT22;64457;51.976;9.834;2023-05-23T06:52:57;18.00;99.90
75824;DHT22;64457;51.976;9.834;2023-05-23T06:55:26;18.30;99.90
75824;DHT22;64457;51.976;9.834;2023-05-23T06:57:55;18.30;99.90
75824;DHT22;64457;51.976;9.834;2023-05-23T07:00:22;18.50;99.60
75824;DHT22;64457;51.976;9.834;2023-05-23T07:02:50;18.60;99.30
75824;DHT22;64457;51.976;9.834;2023-05-23T07:05:17;18.60;99.20
75824;DHT22;64457;51.976;9.834;2023-05-23T07:07:46;18.70;98.90
75824;DHT22;64457;51.976;9.834;2023-05-23T07:10:14;18.50;99.30
75824;DHT22;64457;51.976;9.834;2023-05-23T07:12:45;18.60;99.40
75824;DHT22;64457;51.976;9.834;2023-05-23T07:15:13;18.60;99.10
75824;DHT22;64457;51.976;9.834;2023-05-23T07:17:41;18.60;99.40
75824;DHT22;64457;51.976;9.834;2023-05-23T07:20:10;18.30;99.80
75824;DHT22;64457;51.976;9.834;2023-05-23T07:22:37;18.30;99.70
75824;DHT22;64457;51.976;9.834;2023-05-23T07:25:06;18.20;99.70
75824;DHT22;64457;51.976;9.834;2023-05-23T07:27:35;17.90;99.90
75824;DHT22;64457;51.976;9.834;2023-05-23T07:30:09;17.90;99.90
75824;DHT22;64457;51.976;9.834;2023-05-23T07:32:38;18.00;99.90
75824;DHT22;64457;51.976;9.834;2023-05-23T07:35:08;18.10;99.90
75824;DHT22;64457;51.976;9.834;2023-05-23T07:37:36;17.90;99.90
75824;DHT22;64457;51.976;9.834;2023-05-23T07:40:04;18.10;99.90
75824;DHT22;64457;51.976;9.834;2023-05-23T07:42:34;18.20;99.90
75824;DHT22;64457;51.976;9.834;2023-05-23T07:45:01;18.00;99.90
75824;DHT22;64457;51.976;9.834;2023-05-23T07:47:34;18.10;99.90
75824;DHT22;64457;51.976;9.834;2023-05-23T07:50:02;18.00;99.90
75824;DHT22;64457;51.976;9.834;2023-05-23T07:52:31;18.00;99.90
75824;DHT22;64457;51.976;9.834;2023-05-23T07:54:59;18.10;99.90
75824;DHT22;64457;51.976;9.834;2023-05-23T07:57:27;18.20;99.90
75824;DHT22;64457;51.976;9.834;2023-05-23T07:59:55;18.30;99.90
75824;DHT22;64457;51.976;9.834;2023-05-23T08:02:23;18.20;99.90
75824;DHT22;64457;51.976;9.834;2023-05-23T08:04:53;18.10;99.90
75824;DHT22;64457;51.976;9.834;2023-05-23T08:07:22;18.00;99.90
75824;DHT22;64457;51.976;9.834;2023-05-23T08:09:49;17.90;99.90
75824;DHT22;64457;51.976;9.834;2023-05-23T08:12:17;17.90;99.90
75824;DHT22;64457;51.976;9.834;2023-05-23T08:14:46;17.80;99.90
75824;DHT22;64457;51.976;9.834;2023-05-23T08:17:13;17.70;99.90
75824;DHT22;64457;51.976;9.834;2023-05-23T08:19:41;17.80;99.90
75824;DHT22;64457;51.976;9.834;2023-05-23T08:22:10;17.80;99.90
75824;DHT22;64457;51.976;9.834;2023-05-23T08:24:38;18.10;99.90
75824;DHT22;64457;51.976;9.834;2023-05-23T08:27:07;18.30;99.80
75824;DHT22;64457;51.976;9.834;2023-05-23T08:29:35;18.50;99.90
75824;DHT22;64457;51.976;9.834;2023-05-23T08:32:03;18.40;99.70
75824;DHT22;64457;51.976;9.834;2023-05-23T08:34:31;18.40;99.50
75824;DHT22;64457;51.976;9.834;2023-05-23T08:36:59;18.50;99.20
75824;DHT22;64457;51.976;9.834;2023-05-23T08:39:29;18.60;98.90
75824;DHT22;64457;51.976;9.834;2023-05-23T08:41:57;18.50;99.00
75824;DHT22;64457;51.976;9.834;2023-05-23T08:44:24;18.20;99.10
75824;DHT22;64457;51.976;9.834;2023-05-23T08:46:53;18.20;99.30
75824;DHT22;64457;51.976;9.834;2023-05-23T08:49:23;18.20;99.30
75824;DHT22;64457;51.976;9.834;2023-05-23T08:51:53;18.20;99.50
75824;DHT22;64457;51.976;9.834;2023-05-23T08:54:24;18.00;99.60
75824;DHT22;64457;51.976;9.834;2023-05-23T08:56:53;17.90;99.90
75824;DHT22;64457;51.976;9.834;2023-05-23T08:59:21;17.60;99.90
75824;DHT22;64457;51.976;9.834;2023-05-23T09:01:51;17.00;99.90
75824;DHT22;64457;51.976;9.834;2023-05-23T09:04:24;16.70;99.90
75824;DHT22;64457;51.976;9.834;2023-05-23T09:06:55;16.70;99.90
75824;DHT22;64457;51.976;9.834;2023-05-23T09:09:24;16.60;99.90
75824;DHT22;64457;51.976;9.834;2023-05-23T09:11:55;16.60;99.90
75824;DHT22;64457;51.976;9.834;2023-05-23T09:14:25;16.60;99.90
75824;DHT22;64457;51.976;9.834;2023-05-23T09:17:00;16.40;99.90
75824;DHT22;64457;51.976;9.834;2023-05-23T09:19:30;16.30;99.90
75824;DHT22;64457;51.976;9.834;2023-05-23T09:21:57;16.20;99.90
75824;DHT22;64457;51.976;9.834;2023-05-23T09:24:33;16.20;99.90
75824;DHT22;64457;51.976;9.834;2023-05-23T09:27:06;16.20;99.90
75824;DHT22;64457;51.976;9.834;2023-05-23T09:29:36;16.20;99.90
75824;DHT22;64457;51.976;9.834;2023-05-23T09:32:12;16.10;99.90
75824;DHT22;64457;51.976;9.834;2023-05-23T09:34:41;16.20;99.90
75824;DHT22;64457;51.976;9.834;2023-05-23T09:37:11;16.40;99.90
75824;DHT22;64457;51.976;9.834;2023-05-23T09:39:45;16.60;99.90
75824;DHT22;64457;51.976;9.834;2023-05-23T09:42:19;16.60;99.90
75824;DHT22;64457;51.976;9.834;2023-05-23T09:44:49;16.50;99.90
75824;DHT22;64457;51.976;9.834;2023-05-23T09:47:20;16.50;99.90
75824;DHT22;64457;51.976;9.834;2023-05-23T09:49:49;16.60;99.90
75824;DHT22;64457;51.976;9.834;2023-05-23T09:52:17;16.50;99.90
75824;DHT22;64457;51.976;9.834;2023-05-23T09:54:46;16.60;99.90
75824;DHT22;64457;51.976;9.834;2023-05-23T09:57:21;16.40;99.90
75824;DHT22;64457;51.976;9.834;2023-05-23T09:59:52;16.00;99.90
75824;DHT22;64457;51.976;9.834;2023-05-23T10:05:34;15.90;99.90
75824;DHT22;64457;51.976;9.834;2023-05-23T10:08:07;15.60;99.90
75824;DHT22;64457;51.976;9.834;2023-05-23T10:11:20;15.80;99.90
75824;DHT22;64457;51.976;9.834;2023-05-23T10:14:18;15.70;99.90
75824;DHT22;64457;51.976;9.834;2023-05-23T10:17:00;15.50;99.90
75824;DHT22;64457;51.976;9.834;2023-05-23T10:19:34;15.50;99.90
75824;DHT22;64457;51.976;9.834;2023-05-23T10:22:11;15.60;99.90
75824;DHT22;64457;51.976;9.834;2023-05-23T10:24:42;15.70;99.90
75824;DHT22;64457;51.976;9.834;2023-05-23T10:27:12;15.80;99.90
75824;DHT22;64457;51.976;9.834;2023-05-23T10:29:42;16.00;99.90
75824;DHT22;64457;51.976;9.834;2023-05-23T10:32:11;16.10;99.90
75824;DHT22;64457;51.976;9.834;2023-05-23T10:34:50;15.80;99.90
75824;DHT22;64457;51.976;9.834;2023-05-23T10:37:28;15.50;99.90
75824;DHT22;64457;51.976;9.834;2023-05-23T10:40:02;15.70;99.90
75824;DHT22;64457;51.976;9.834;2023-05-23T10:42:50;15.80;99.90
75824;DHT22;64457;51.976;9.834;2023-05-23T10:45:22;15.70;99.90
75824;DHT22;64457;51.976;9.834;2023-05-23T10:47:52;15.60;99.90
75824;DHT22;64457;51.976;9.834;2023-05-23T10:50:35;15.60;99.90
75824;DHT22;64457;51.976;9.834;2023-05-23T10:53:05;15.60;99.90
75824;DHT22;64457;51.976;9.834;2023-05-23T10:55:34;15.90;99.90
75824;DHT22;64457;51.976;9.834;2023-05-23T10:58:09;16.10;99.90
75824;DHT22;64457;51.976;9.834;2023-05-23T11:00:49;16.10;99.90
75824;DHT22;64457;51.976;9.834;2023-05-23T11:03:30;16.10;99.90
75824;DHT22;64457;51.976;9.834;2023-05-23T11:06:02;15.90;99.90
75824;DHT22;64457;51.976;9.834;2023-05-23T11:08:38;15.90;99.90
75824;DHT22;64457;51.976;9.834;2023-05-23T11:11:10;15.80;99.90
75824;DHT22;64457;51.976;9.834;2023-05-23T11:13:56;16.00;99.90
75824;DHT22;64457;51.976;9.834;2023-05-23T11:16:31;16.20;99.90
75824;DHT22;64457;51.976;9.834;2023-05-23T11:19:30;16.10;99.90
75824;DHT22;64457;51.976;9.834;2023-05-23T11:22:00;16.10;99.70
75824;DHT22;64457;51.976;9.834;2023-05-23T11:24:48;16.10;99.90
75824;DHT22;64457;51.976;9.834;2023-05-23T11:27:18;16.00;99.80
75824;DHT22;64457;51.976;9.834;2023-05-23T11:29:57;15.60;99.90
75824;DHT22;64457;51.976;9.834;2023-05-23T11:32:29;15.40;99.90
75824;DHT22;64457;51.976;9.834;2023-05-23T11:35:02;15.40;99.90
75824;DHT22;64457;51.976;9.834;2023-05-23T11:37:33;15.50;99.90
75824;DHT22;64457;51.976;9.834;2023-05-23T11:40:26;15.30;99.90
75824;DHT22;64457;51.976;9.834;2023-05-23T11:42:59;15.40;99.90
75824;DHT22;64457;51.976;9.834;2023-05-23T11:45:28;15.30;99.90
75824;DHT22;64457;51.976;9.834;2023-05-23T11:48:04;15.20;99.90
75824;DHT22;64457;51.976;9.834;2023-05-23T11:50:34;15.00;99.90
75824;DHT22;64457;51.976;9.834;2023-05-23T11:53:10;15.00;99.90
75824;DHT22;64457;51.976;9.834;2023-05-23T11:55:40;14.90;99.90
75824;DHT22;64457;51.976;9.834;2023-05-23T11:58:14;15.20;99.90
75824;DHT22;64457;51.976;9.834;2023-05-23T12:00:43;15.20;99.90
75824;DHT22;64457;51.976;9.834;2023-05-23T12:03:13;15.40;99.90
75824;DHT22;64457;51.976;9.834;2023-05-23T12:05:42;15.20;99.90
75824;DHT22;64457;51.976;9.834;2023-05-23T12:08:13;15.30;99.90
75824;DHT22;64457;51.976;9.834;2023-05-23T12:10:51;15.40;99.90
75824;DHT22;64457;51.976;9.834;2023-05-23T12:13:19;15.40;99.70
75824;DHT22;64457;51.976;9.834;2023-05-23T12:15:53;15.20;99.90
75824;DHT22;64457;51.976;9.834;2023-05-23T12:18:23;15.20;99.90
75824;DHT22;64457;51.976;9.834;2023-05-23T12:20:52;15.30;99.80
75824;DHT22;64457;51.976;9.834;2023-05-23T12:23:20;15.30;99.70
75824;DHT22;64457;51.976;9.834;2023-05-23T12:25:50;15.30;99.60
75824;DHT22;64457;51.976;9.834;2023-05-23T12:28:19;15.40;99.70
75824;DHT22;64457;51.976;9.834;2023-05-23T12:30:48;15.30;99.90
75824;DHT22;64457;51.976;9.834;2023-05-23T12:33:18;15.30;99.80
75824;DHT22;64457;51.976;9.834;2023-05-23T12:35:49;15.00;99.90
75824;DHT22;64457;51.976;9.834;2023-05-23T12:38:19;14.80;99.90
75824;DHT22;64457;51.976;9.834;2023-05-23T12:41:06;14.90;99.90
75824;DHT22;64457;51.976;9.834;2023-05-23T12:43:49;15.00;99.90
75824;DHT22;64457;51.976;9.834;2023-05-23T12:46:19;14.80;99.60
75824;DHT22;64457;51.976;9.834;2023-05-23T12:48:47;14.70;99.90
75824;DHT22;64457;51.976;9.834;2023-05-23T12:51:17;14.80;98.80
75824;DHT22;64457;51.976;9.834;2023-05-23T12:53:44;15.10;98.70
75824;DHT22;64457;51.976;9.834;2023-05-23T12:56:12;15.10;98.20
75824;DHT22;64457;51.976;9.834;2023-05-23T12:58:44;15.40;97.90
75824;DHT22;64457;51.976;9.834;2023-05-23T13:01:12;15.70;97.20
75824;DHT22;64457;51.976;9.834;2023-05-23T13:03:41;15.90;97.00
75824;DHT22;64457;51.976;9.834;2023-05-23T13:06:09;16.20;96.20
75824;DHT22;64457;51.976;9.834;2023-05-23T13:08:39;16.30;96.40
75824;DHT22;64457;51.976;9.834;2023-05-23T13:11:08;16.40;96.00
75824;DHT22;64457;51.976;9.834;2023-05-23T13:13:36;16.50;95.50
75824;DHT22;64457;51.976;9.834;2023-05-23T13:16:05;16.40;95.60
75824;DHT22;64457;51.976;9.834;2023-05-23T13:18:35;16.50;95.30
75824;DHT22;64457;51.976;9.834;2023-05-23T13:21:08;16.50;95.40
75824;DHT22;64457;51.976;9.834;2023-05-23T13:23:36;16.40;95.60
75824;DHT22;64457;51.976;9.834;2023-05-23T13:26:05;16.50;95.40
75824;DHT22;64457;51.976;9.834;2023-05-23T13:28:36;16.30;95.50
75824;DHT22;64457;51.976;9.834;2023-05-23T13:31:05;16.20;95.70
75824;DHT22;64457;51.976;9.834;2023-05-23T13:33:33;16.20;95.20
75824;DHT22;64457;51.976;9.834;2023-05-23T13:36:03;16.30;95.20
75824;DHT22;64457;51.976;9.834;2023-05-23T13:38:30;16.60;94.70
75824;DHT22;64457;51.976;9.834;2023-05-23T13:41:01;16.60;93.90
75824;DHT22;64457;51.976;9.834;2023-05-23T13:43:30;16.30;94.20
75824;DHT22;64457;51.976;9.834;2023-05-23T13:45:58;16.10;94.50
75824;DHT22;64457;51.976;9.834;2023-05-23T13:48:27;16.10;94.90
75824;DHT22;64457;51.976;9.834;2023-05-23T13:50:55;16.30;94.10
75824;DHT22;64457;51.976;9.834;2023-05-23T13:53:23;16.60;94.30
75824;DHT22;64457;51.976;9.834;2023-05-23T13:55:51;16.80;93.30
75824;DHT22;64457;51.976;9.834;2023-05-23T13:58:19;16.60;93.50
75824;DHT22;64457;51.976;9.834;2023-05-23T14:00:48;17.00;92.20
75824;DHT22;64457;51.976;9.834;2023-05-23T14:03:16;17.10;91.60
75824;DHT22;64457;51.976;9.834;2023-05-23T14:05:46;17.20;91.30
75824;DHT22;64457;51.976;9.834;2023-05-23T14:08:15;17.00;90.70
75824;DHT22;64457;51.976;9.834;2023-05-23T14:10:43;16.90;90.90
75824;DHT22;64457;51.976;9.834;2023-05-23T14:13:11;16.90;91.80
75824;DHT22;64457;51.976;9.834;2023-05-23T14:15:38;17.40;92.10
75824;DHT22;64457;51.976;9.834;2023-05-23T14:18:15;17.90;92.10
75824;DHT22;64457;51.976;9.834;2023-05-23T14:20:44;18.20;90.80
75824;DHT22;64457;51.976;9.834;2023-05-23T14:23:14;18.00;90.60
75824;DHT22;64457;51.976;9.834;2023-05-23T14:25:41;17.80;90.80
75824;DHT22;64457;51.976;9.834;2023-05-23T14:28:16;17.80;91.00
75824;DHT22;64457;51.976;9.834;2023-05-23T14:30:44;18.10;90.30
75824;DHT22;64457;51.976;9.834;2023-05-23T14:33:15;17.90;89.80
75824;DHT22;64457;51.976;9.834;2023-05-23T14:35:45;18.00;89.40
75824;DHT22;64457;51.976;9.834;2023-05-23T14:38:13;17.90;87.10
75824;DHT22;64457;51.976;9.834;2023-05-23T14:40:43;18.10;87.90
75824;DHT22;64457;51.976;9.834;2023-05-23T14:43:13;18.30;85.70
75824;DHT22;64457;51.976;9.834;2023-05-23T14:45:45;18.40;87.00
75824;DHT22;64457;51.976;9.834;2023-05-23T14:48:14;18.50;83.70
75824;DHT22;64457;51.976;9.834;2023-05-23T14:50:43;18.60;84.50
75824;DHT22;64457;51.976;9.834;2023-05-23T14:53:11;18.40;82.60
75824;DHT22;64457;51.976;9.834;2023-05-23T14:55:39;18.20;82.00
75824;DHT22;64457;51.976;9.834;2023-05-23T14:58:07;18.10;83.90
75824;DHT22;64457;51.976;9.834;2023-05-23T15:00:35;17.90;86.30
75824;DHT22;64457;51.976;9.834;2023-05-23T15:03:05;17.90;84.90
75824;DHT22;64457;51.976;9.834;2023-05-23T15:05:36;18.00;85.90
75824;DHT22;64457;51.976;9.834;2023-05-23T15:08:04;17.90;85.10
75824;DHT22;64457;51.976;9.834;2023-05-23T15:10:32;17.60;82.60
75824;DHT22;64457;51.976;9.834;2023-05-23T15:12:59;17.50;82.70
75824;DHT22;64457;51.976;9.834;2023-05-23T15:15:29;17.50;83.10
75824;DHT22;64457;51.976;9.834;2023-05-23T15:18:02;17.40;81.30
75824;DHT22;64457;51.976;9.834;2023-05-23T15:20:36;17.30;81.70
75824;DHT22;64457;51.976;9.834;2023-05-23T15:23:05;17.30;81.30
75824;DHT22;64457;51.976;9.834;2023-05-23T15:25:35;17.30;81.60
75824;DHT22;64457;51.976;9.834;2023-05-23T15:28:03;17.20;83.30
75824;DHT22;64457;51.976;9.834;2023-05-23T15:30:31;17.30;81.70
75824;DHT22;64457;51.976;9.834;2023-05-23T15:33:02;17.40;81.30
75824;DHT22;64457;51.976;9.834;2023-05-23T15:35:45;17.60;81.60
75824;DHT22;64457;51.976;9.834;2023-05-23T15:38:13;17.70;81.90
75824;DHT22;64457;51.976;9.834;2023-05-23T15:40:41;17.90;81.80
75824;DHT22;64457;51.976;9.834;2023-05-23T15:43:09;18.00;80.50
75824;DHT22;64457;51.976;9.834;2023-05-23T15:45:37;18.00;80.60
75824;DHT22;64457;51.976;9.834;2023-05-23T15:48:04;17.70;80.60
75824;DHT22;64457;51.976;9.834;2023-05-23T15:50:34;17.40;81.20
75824;DHT22;64457;51.976;9.834;2023-05-23T15:53:06;17.30;82.10
75824;DHT22;64457;51.976;9.834;2023-05-23T15:55:36;17.20;81.80